sensor_id;sensor_type;location;lat;lon;timestamp;temperature;humidity
59148;DHT22;44930;52.878;6.168;2022-10-16T00:01:21;12.70;99.90
59148;DHT22;44930;52.878;6.168;2022-10-16T00:03:48;12.80;99.90
59148;DHT22;44930;52.878;6.168;2022-10-16T00:06:15;12.70;99.90
59148;DHT22;44930;52.878;6.168;2022-10-16T00:08:42;12.90;99.90
59148;DHT22;44930;52.878;6.168;2022-10-16T00:11:19;12.90;99.90
59148;DHT22;44930;52.878;6.168;2022-10-16T00:13:47;13.00;99.90
59148;DHT22;44930;52.878;6.168;2022-10-16T00:16:13;12.80;99.90
59148;DHT22;44930;52.878;6.168;2022-10-16T00:18:40;13.00;99.90
59148;DHT22;44930;52.878;6.168;2022-10-16T00:21:11;12.90;99.90
59148;DHT22;44930;52.878;6.168;2022-10-16T00:23:37;13.10;99.90
59148;DHT22;44930;52.878;6.168;2022-10-16T00:26:08;13.10;99.90
59148;DHT22;44930;52.878;6.168;2022-10-16T00:28:35;13.20;99.90
59148;DHT22;44930;52.878;6.168;2022-10-16T00:31:05;13.10;99.90
59148;DHT22;44930;52.878;6.168;2022-10-16T00:33:31;13.30;99.90
59148;DHT22;44930;52.878;6.168;2022-10-16T00:35:58;13.20;99.90
59148;DHT22;44930;52.878;6.168;2022-10-16T00:38:24;13.10;99.90
59148;DHT22;44930;52.878;6.168;2022-10-16T00:40:50;13.00;99.90
59148;DHT22;44930;52.878;6.168;2022-10-16T00:43:39;12.90;99.90
59148;DHT22;44930;52.878;6.168;2022-10-16T00:48:36;13.40;99.90
59148;DHT22;44930;52.878;6.168;2022-10-16T00:51:02;13.10;99.90
59148;DHT22;44930;52.878;6.168;2022-10-16T00:53:28;12.70;99.90
59148;DHT22;44930;52.878;6.168;2022-10-16T00:55:54;12.90;99.90
59148;DHT22;44930;52.878;6.168;2022-10-16T00:58:20;13.20;99.90
59148;DHT22;44930;52.878;6.168;2022-10-16T01:00:46;12.90;99.90
59148;DHT22;44930;52.878;6.168;2022-10-16T01:03:28;13.20;99.90
59148;DHT22;44930;52.878;6.168;2022-10-16T01:08:44;12.80;99.90
59148;DHT22;44930;52.878;6.168;2022-10-16T01:13:53;13.10;99.90
59148;DHT22;44930;52.878;6.168;2022-10-16T01:16:55;13.00;99.90
59148;DHT22;44930;52.878;6.168;2022-10-16T01:19:50;12.90;99.90
59148;DHT22;44930;52.878;6.168;2022-10-16T01:22:17;13.00;99.90
59148;DHT22;44930;52.878;6.168;2022-10-16T01:24:46;13.00;99.90
59148;DHT22;44930;52.878;6.168;2022-10-16T01:27:26;13.10;99.90
59148;DHT22;44930;52.878;6.168;2022-10-16T01:30:11;13.30;99.90
59148;DHT22;44930;52.878;6.168;2022-10-16T01:32:55;12.80;99.90
59148;DHT22;44930;52.878;6.168;2022-10-16T01:35:26;13.20;99.90
59148;DHT22;44930;52.878;6.168;2022-10-16T01:38:17;12.80;99.90
59148;DHT22;44930;52.878;6.168;2022-10-16T01:40:52;13.10;99.90
59148;DHT22;44930;52.878;6.168;2022-10-16T01:43:28;12.80;99.90
59148;DHT22;44930;52.878;6.168;2022-10-16T01:45:57;12.90;99.90
59148;DHT22;44930;52.878;6.168;2022-10-16T01:48:24;13.30;99.90
59148;DHT22;44930;52.878;6.168;2022-10-16T01:51:11;13.30;99.90
59148;DHT22;44930;52.878;6.168;2022-10-16T01:53:39;13.10;99.90
59148;DHT22;44930;52.878;6.168;2022-10-16T01:56:08;13.10;99.90
59148;DHT22;44930;52.878;6.168;2022-10-16T01:58:40;13.00;99.90
59148;DHT22;44930;52.878;6.168;2022-10-16T02:01:07;13.10;99.90
59148;DHT22;44930;52.878;6.168;2022-10-16T02:03:36;12.70;99.90
59148;DHT22;44930;52.878;6.168;2022-10-16T02:06:03;13.20;99.90
59148;DHT22;44930;52.878;6.168;2022-10-16T02:08:30;13.30;99.90
59148;DHT22;44930;52.878;6.168;2022-10-16T02:10:57;12.70;99.90
59148;DHT22;44930;52.878;6.168;2022-10-16T02:13:48;13.10;99.90
59148;DHT22;44930;52.878;6.168;2022-10-16T02:16:12;13.00;99.90
59148;DHT22;44930;52.878;6.168;2022-10-16T02:18:39;13.20;99.90
59148;DHT22;44930;52.878;6.168;2022-10-16T02:21:42;13.00;99.90
59148;DHT22;44930;52.878;6.168;2022-10-16T02:24:23;13.00;99.90
59148;DHT22;44930;52.878;6.168;2022-10-16T02:27:05;12.90;99.90
59148;DHT22;44930;52.878;6.168;2022-10-16T02:29:38;13.10;99.90
59148;DHT22;44930;52.878;6.168;2022-10-16T02:32:06;13.00;99.90
59148;DHT22;44930;52.878;6.168;2022-10-16T02:34:34;13.10;99.90
59148;DHT22;44930;52.878;6.168;2022-10-16T02:37:01;13.00;99.90
59148;DHT22;44930;52.878;6.168;2022-10-16T02:39:28;13.00;99.90
59148;DHT22;44930;52.878;6.168;2022-10-16T02:41:54;12.90;99.90
59148;DHT22;44930;52.878;6.168;2022-10-16T02:44:20;13.30;99.90
59148;DHT22;44930;52.878;6.168;2022-10-16T02:46:46;13.10;99.90
59148;DHT22;44930;52.878;6.168;2022-10-16T02:49:11;13.20;99.90
59148;DHT22;44930;52.878;6.168;2022-10-16T02:51:37;13.20;99.90
59148;DHT22;44930;52.878;6.168;2022-10-16T02:54:03;13.30;99.90
59148;DHT22;44930;52.878;6.168;2022-10-16T02:56:28;13.10;99.90
59148;DHT22;44930;52.878;6.168;2022-10-16T02:58:55;13.20;99.90
59148;DHT22;44930;52.878;6.168;2022-10-16T03:01:21;12.80;99.90
59148;DHT22;44930;52.878;6.168;2022-10-16T03:03:46;13.00;99.90
59148;DHT22;44930;52.878;6.168;2022-10-16T03:06:12;13.10;99.90
59148;DHT22;44930;52.878;6.168;2022-10-16T03:08:37;13.00;99.90
59148;DHT22;44930;52.878;6.168;2022-10-16T03:11:03;12.90;99.90
59148;DHT22;44930;52.878;6.168;2022-10-16T03:15:54;13.40;99.90
59148;DHT22;44930;52.878;6.168;2022-10-16T03:18:20;13.20;99.90
59148;DHT22;44930;52.878;6.168;2022-10-16T03:20:45;13.20;99.90
59148;DHT22;44930;52.878;6.168;2022-10-16T03:23:11;13.00;99.90
59148;DHT22;44930;52.878;6.168;2022-10-16T03:25:37;13.20;99.90
59148;DHT22;44930;52.878;6.168;2022-10-16T03:28:02;13.10;99.90
59148;DHT22;44930;52.878;6.168;2022-10-16T03:30:28;12.60;99.90
59148;DHT22;44930;52.878;6.168;2022-10-16T03:32:54;12.90;99.90
59148;DHT22;44930;52.878;6.168;2022-10-16T03:35:21;13.00;99.90
59148;DHT22;44930;52.878;6.168;2022-10-16T03:37:46;13.00;99.90
59148;DHT22;44930;52.878;6.168;2022-10-16T03:40:13;13.00;99.90
59148;DHT22;44930;52.878;6.168;2022-10-16T03:42:39;13.00;99.90
59148;DHT22;44930;52.878;6.168;2022-10-16T03:45:05;13.40;99.90
59148;DHT22;44930;52.878;6.168;2022-10-16T03:47:31;13.10;99.90
59148;DHT22;44930;52.878;6.168;2022-10-16T03:49:58;13.30;99.90
59148;DHT22;44930;52.878;6.168;2022-10-16T03:52:24;13.10;99.90
59148;DHT22;44930;52.878;6.168;2022-10-16T03:54:50;13.10;99.90
59148;DHT22;44930;52.878;6.168;2022-10-16T03:57:16;13.10;99.90
59148;DHT22;44930;52.878;6.168;2022-10-16T03:59:41;13.20;99.90
59148;DHT22;44930;52.878;6.168;2022-10-16T04:02:07;13.20;99.90
59148;DHT22;44930;52.878;6.168;2022-10-16T04:04:32;12.60;99.90
59148;DHT22;44930;52.878;6.168;2022-10-16T04:06:58;13.20;99.90
59148;DHT22;44930;52.878;6.168;2022-10-16T04:09:24;13.10;99.90
59148;DHT22;44930;52.878;6.168;2022-10-16T04:11:49;13.10;99.90
59148;DHT22;44930;52.878;6.168;2022-10-16T04:14:15;13.10;99.90
59148;DHT22;44930;52.878;6.168;2022-10-16T04:16:40;13.10;99.90
59148;DHT22;44930;52.878;6.168;2022-10-16T04:19:06;13.10;99.90
59148;DHT22;44930;52.878;6.168;2022-10-16T04:21:31;12.90;99.90
59148;DHT22;44930;52.878;6.168;2022-10-16T04:23:57;13.20;99.90
59148;DHT22;44930;52.878;6.168;2022-10-16T04:26:22;13.20;99.90
59148;DHT22;44930;52.878;6.168;2022-10-16T04:28:48;13.20;99.90
59148;DHT22;44930;52.878;6.168;2022-10-16T04:31:14;13.20;99.90
59148;DHT22;44930;52.878;6.168;2022-10-16T04:33:42;13.10;99.90
59148;DHT22;44930;52.878;6.168;2022-10-16T04:36:08;13.20;99.90
59148;DHT22;44930;52.878;6.168;2022-10-16T04:38:34;13.10;99.90
59148;DHT22;44930;52.878;6.168;2022-10-16T04:40:59;13.00;99.90
59148;DHT22;44930;52.878;6.168;2022-10-16T04:43:25;13.20;99.90
59148;DHT22;44930;52.878;6.168;2022-10-16T04:45:51;13.10;99.90
59148;DHT22;44930;52.878;6.168;2022-10-16T04:48:17;13.10;99.90
59148;DHT22;44930;52.878;6.168;2022-10-16T04:50:43;13.00;99.90
59148;DHT22;44930;52.878;6.168;2022-10-16T04:53:09;13.00;99.90
59148;DHT22;44930;52.878;6.168;2022-10-16T04:55:34;13.00;99.90
59148;DHT22;44930;52.878;6.168;2022-10-16T04:58:00;12.70;99.90
59148;DHT22;44930;52.878;6.168;2022-10-16T05:00:26;13.20;99.90
59148;DHT22;44930;52.878;6.168;2022-10-16T05:02:51;13.20;99.90
59148;DHT22;44930;52.878;6.168;2022-10-16T05:05:17;13.20;99.90
59148;DHT22;44930;52.878;6.168;2022-10-16T05:07:45;13.20;99.90
59148;DHT22;44930;52.878;6.168;2022-10-16T05:10:11;13.10;99.90
59148;DHT22;44930;52.878;6.168;2022-10-16T05:12:36;12.80;99.90
59148;DHT22;44930;52.878;6.168;2022-10-16T05:15:02;13.00;99.90
59148;DHT22;44930;52.878;6.168;2022-10-16T05:17:28;12.70;99.90
59148;DHT22;44930;52.878;6.168;2022-10-16T05:19:54;13.20;99.90
59148;DHT22;44930;52.878;6.168;2022-10-16T05:22:19;13.30;99.90
59148;DHT22;44930;52.878;6.168;2022-10-16T05:24:45;12.70;99.90
59148;DHT22;44930;52.878;6.168;2022-10-16T05:27:11;12.60;99.90
59148;DHT22;44930;52.878;6.168;2022-10-16T05:29:36;13.20;99.90
59148;DHT22;44930;52.878;6.168;2022-10-16T05:32:02;12.80;99.90
59148;DHT22;44930;52.878;6.168;2022-10-16T05:34:28;13.50;99.90
59148;DHT22;44930;52.878;6.168;2022-10-16T05:36:53;12.80;99.90
59148;DHT22;44930;52.878;6.168;2022-10-16T05:39:19;13.10;99.90
59148;DHT22;44930;52.878;6.168;2022-10-16T05:41:45;12.90;99.90
59148;DHT22;44930;52.878;6.168;2022-10-16T05:44:10;13.20;99.90
59148;DHT22;44930;52.878;6.168;2022-10-16T05:46:36;12.90;99.90
59148;DHT22;44930;52.878;6.168;2022-10-16T05:49:02;12.80;99.90
59148;DHT22;44930;52.878;6.168;2022-10-16T05:51:28;13.10;99.90
59148;DHT22;44930;52.878;6.168;2022-10-16T05:53:53;13.10;99.90
59148;DHT22;44930;52.878;6.168;2022-10-16T05:56:19;13.00;99.90
59148;DHT22;44930;52.878;6.168;2022-10-16T05:58:45;13.00;99.90
59148;DHT22;44930;52.878;6.168;2022-10-16T06:01:13;12.90;99.90
59148;DHT22;44930;52.878;6.168;2022-10-16T06:03:39;12.90;99.90
59148;DHT22;44930;52.878;6.168;2022-10-16T06:08:35;12.90;99.90
59148;DHT22;44930;52.878;6.168;2022-10-16T06:11:05;13.10;99.90
59148;DHT22;44930;52.878;6.168;2022-10-16T06:13:31;12.90;99.90
59148;DHT22;44930;52.878;6.168;2022-10-16T06:15:58;13.20;99.90
59148;DHT22;44930;52.878;6.168;2022-10-16T06:18:25;12.90;99.90
59148;DHT22;44930;52.878;6.168;2022-10-16T06:20:51;13.00;99.90
59148;DHT22;44930;52.878;6.168;2022-10-16T06:23:17;13.10;99.90
59148;DHT22;44930;52.878;6.168;2022-10-16T06:25:42;13.00;99.90
59148;DHT22;44930;52.878;6.168;2022-10-16T06:28:08;13.60;99.90
59148;DHT22;44930;52.878;6.168;2022-10-16T06:30:33;13.20;99.90
59148;DHT22;44930;52.878;6.168;2022-10-16T06:32:59;13.00;99.90
59148;DHT22;44930;52.878;6.168;2022-10-16T06:35:24;13.40;99.90
59148;DHT22;44930;52.878;6.168;2022-10-16T06:37:50;13.20;99.90
59148;DHT22;44930;52.878;6.168;2022-10-16T06:40:15;12.90;99.90
59148;DHT22;44930;52.878;6.168;2022-10-16T06:42:41;12.80;99.90
59148;DHT22;44930;52.878;6.168;2022-10-16T06:45:07;13.30;99.90
59148;DHT22;44930;52.878;6.168;2022-10-16T06:47:33;12.90;99.90
59148;DHT22;44930;52.878;6.168;2022-10-16T06:49:58;12.80;99.90
59148;DHT22;44930;52.878;6.168;2022-10-16T06:52:24;13.10;99.90
59148;DHT22;44930;52.878;6.168;2022-10-16T06:54:50;13.10;99.90
59148;DHT22;44930;52.878;6.168;2022-10-16T06:57:16;13.10;99.90
59148;DHT22;44930;52.878;6.168;2022-10-16T06:59:41;13.10;99.90
59148;DHT22;44930;52.878;6.168;2022-10-16T07:02:08;13.10;99.90
59148;DHT22;44930;52.878;6.168;2022-10-16T07:04:35;13.10;99.90
59148;DHT22;44930;52.878;6.168;2022-10-16T07:07:01;13.50;99.90
59148;DHT22;44930;52.878;6.168;2022-10-16T07:09:27;13.10;99.90
59148;DHT22;44930;52.878;6.168;2022-10-16T07:11:52;13.00;99.90
59148;DHT22;44930;52.878;6.168;2022-10-16T07:14:20;13.20;99.90
59148;DHT22;44930;52.878;6.168;2022-10-16T07:16:47;12.90;99.90
59148;DHT22;44930;52.878;6.168;2022-10-16T07:19:13;13.00;99.90
59148;DHT22;44930;52.878;6.168;2022-10-16T07:21:41;13.40;99.90
59148;DHT22;44930;52.878;6.168;2022-10-16T07:24:12;13.30;99.90
59148;DHT22;44930;52.878;6.168;2022-10-16T07:26:39;13.00;99.90
59148;DHT22;44930;52.878;6.168;2022-10-16T07:29:13;13.30;99.90
59148;DHT22;44930;52.878;6.168;2022-10-16T07:31:39;13.30;99.90
59148;DHT22;44930;52.878;6.168;2022-10-16T07:34:05;13.30;99.90
59148;DHT22;44930;52.878;6.168;2022-10-16T07:36:31;13.40;99.90
59148;DHT22;44930;52.878;6.168;2022-10-16T07:38:56;13.30;99.90
59148;DHT22;44930;52.878;6.168;2022-10-16T07:41:22;13.90;99.90
59148;DHT22;44930;52.878;6.168;2022-10-16T07:43:49;13.50;99.90
59148;DHT22;44930;52.878;6.168;2022-10-16T07:46:16;13.50;99.90
59148;DHT22;44930;52.878;6.168;2022-10-16T07:48:42;13.60;99.90
59148;DHT22;44930;52.878;6.168;2022-10-16T07:51:11;13.70;99.90
59148;DHT22;44930;52.878;6.168;2022-10-16T07:53:37;13.50;99.90
59148;DHT22;44930;52.878;6.168;2022-10-16T07:56:06;13.60;99.90
59148;DHT22;44930;52.878;6.168;2022-10-16T07:58:33;13.70;99.90
59148;DHT22;44930;52.878;6.168;2022-10-16T08:01:04;13.50;99.90
59148;DHT22;44930;52.878;6.168;2022-10-16T08:03:30;13.60;99.90
59148;DHT22;44930;52.878;6.168;2022-10-16T08:05:57;13.60;99.90
59148;DHT22;44930;52.878;6.168;2022-10-16T08:08:23;13.60;99.90
59148;DHT22;44930;52.878;6.168;2022-10-16T08:10:48;13.50;99.90
59148;DHT22;44930;52.878;6.168;2022-10-16T08:13:15;13.80;99.90
59148;DHT22;44930;52.878;6.168;2022-10-16T08:15:41;13.70;99.90
59148;DHT22;44930;52.878;6.168;2022-10-16T08:18:07;13.90;99.90
59148;DHT22;44930;52.878;6.168;2022-10-16T08:20:33;13.80;99.90
59148;DHT22;44930;52.878;6.168;2022-10-16T08:22:59;13.60;99.90
59148;DHT22;44930;52.878;6.168;2022-10-16T08:25:25;13.60;99.90
59148;DHT22;44930;52.878;6.168;2022-10-16T08:27:51;13.60;99.90
59148;DHT22;44930;52.878;6.168;2022-10-16T08:30:18;13.70;99.90
59148;DHT22;44930;52.878;6.168;2022-10-16T08:32:44;13.80;99.90
59148;DHT22;44930;52.878;6.168;2022-10-16T08:35:10;13.70;99.90
59148;DHT22;44930;52.878;6.168;2022-10-16T08:37:37;13.70;99.90
59148;DHT22;44930;52.878;6.168;2022-10-16T08:40:04;13.70;99.90
59148;DHT22;44930;52.878;6.168;2022-10-16T08:45:21;13.90;99.90
59148;DHT22;44930;52.878;6.168;2022-10-16T08:48:22;13.80;99.90
59148;DHT22;44930;52.878;6.168;2022-10-16T08:50:52;14.10;99.90
59148;DHT22;44930;52.878;6.168;2022-10-16T08:53:29;14.10;99.90
59148;DHT22;44930;52.878;6.168;2022-10-16T08:55:56;14.40;99.90
59148;DHT22;44930;52.878;6.168;2022-10-16T08:58:27;14.30;99.90
59148;DHT22;44930;52.878;6.168;2022-10-16T09:01:02;14.40;99.90
59148;DHT22;44930;52.878;6.168;2022-10-16T09:09:37;14.20;99.90
59148;DHT22;44930;52.878;6.168;2022-10-16T09:20:17;14.80;99.90
59148;DHT22;44930;52.878;6.168;2022-10-16T09:22:43;15.00;99.90
59148;DHT22;44930;52.878;6.168;2022-10-16T09:25:15;14.70;99.90
59148;DHT22;44930;52.878;6.168;2022-10-16T09:27:42;15.10;99.90
59148;DHT22;44930;52.878;6.168;2022-10-16T09:30:18;14.90;99.90
59148;DHT22;44930;52.878;6.168;2022-10-16T09:32:45;15.50;99.90
59148;DHT22;44930;52.878;6.168;2022-10-16T09:35:20;15.20;99.90
59148;DHT22;44930;52.878;6.168;2022-10-16T09:37:49;15.10;99.90
59148;DHT22;44930;52.878;6.168;2022-10-16T09:40:36;15.30;99.90
59148;DHT22;44930;52.878;6.168;2022-10-16T09:43:20;15.70;99.90
59148;DHT22;44930;52.878;6.168;2022-10-16T09:46:03;15.00;99.90
59148;DHT22;44930;52.878;6.168;2022-10-16T09:48:38;15.70;99.90
59148;DHT22;44930;52.878;6.168;2022-10-16T09:51:13;15.20;99.90
59148;DHT22;44930;52.878;6.168;2022-10-16T09:53:46;15.30;99.90
59148;DHT22;44930;52.878;6.168;2022-10-16T09:56:21;16.10;99.90
59148;DHT22;44930;52.878;6.168;2022-10-16T09:58:55;15.50;99.90
59148;DHT22;44930;52.878;6.168;2022-10-16T10:01:27;15.50;99.90
59148;DHT22;44930;52.878;6.168;2022-10-16T10:03:56;16.00;99.90
59148;DHT22;44930;52.878;6.168;2022-10-16T10:06:29;15.70;99.90
59148;DHT22;44930;52.878;6.168;2022-10-16T10:09:06;15.70;99.90
59148;DHT22;44930;52.878;6.168;2022-10-16T10:14:48;15.80;99.90
59148;DHT22;44930;52.878;6.168;2022-10-16T10:17:19;15.90;99.90
59148;DHT22;44930;52.878;6.168;2022-10-16T10:19:59;15.70;99.90
59148;DHT22;44930;52.878;6.168;2022-10-16T10:22:39;15.50;99.90
59148;DHT22;44930;52.878;6.168;2022-10-16T10:28:04;16.00;99.90
59148;DHT22;44930;52.878;6.168;2022-10-16T10:33:22;16.00;99.90
59148;DHT22;44930;52.878;6.168;2022-10-16T10:36:05;15.90;99.90
59148;DHT22;44930;52.878;6.168;2022-10-16T10:44:35;15.40;99.90
59148;DHT22;44930;52.878;6.168;2022-10-16T10:47:19;16.00;99.90
59148;DHT22;44930;52.878;6.168;2022-10-16T10:52:50;16.40;99.90
59148;DHT22;44930;52.878;6.168;2022-10-16T10:55:38;15.70;99.90
59148;DHT22;44930;52.878;6.168;2022-10-16T11:06:15;16.20;99.90
59148;DHT22;44930;52.878;6.168;2022-10-16T11:08:52;16.20;99.90
59148;DHT22;44930;52.878;6.168;2022-10-16T11:11:24;16.40;99.90
59148;DHT22;44930;52.878;6.168;2022-10-16T11:14:17;17.50;99.90
59148;DHT22;44930;52.878;6.168;2022-10-16T11:17:02;16.30;99.90
59148;DHT22;44930;52.878;6.168;2022-10-16T11:19:42;16.50;99.90
59148;DHT22;44930;52.878;6.168;2022-10-16T11:22:22;16.60;99.90
59148;DHT22;44930;52.878;6.168;2022-10-16T11:27:50;16.20;99.90
59148;DHT22;44930;52.878;6.168;2022-10-16T11:30:28;16.40;99.90
59148;DHT22;44930;52.878;6.168;2022-10-16T11:33:05;16.00;99.90
59148;DHT22;44930;52.878;6.168;2022-10-16T11:35:49;16.30;99.90
59148;DHT22;44930;52.878;6.168;2022-10-16T11:38:43;16.20;99.90
59148;DHT22;44930;52.878;6.168;2022-10-16T11:41:24;16.30;99.90
59148;DHT22;44930;52.878;6.168;2022-10-16T11:44:06;17.10;99.90
59148;DHT22;44930;52.878;6.168;2022-10-16T11:46:36;16.70;99.90
59148;DHT22;44930;52.878;6.168;2022-10-16T11:49:13;16.30;99.90
59148;DHT22;44930;52.878;6.168;2022-10-16T11:51:45;16.60;99.90
59148;DHT22;44930;52.878;6.168;2022-10-16T11:57:21;16.40;99.90
59148;DHT22;44930;52.878;6.168;2022-10-16T12:02:41;16.50;99.90
59148;DHT22;44930;52.878;6.168;2022-10-16T12:08:13;17.20;99.90
59148;DHT22;44930;52.878;6.168;2022-10-16T12:10:42;16.60;99.90
59148;DHT22;44930;52.878;6.168;2022-10-16T12:16:20;16.70;99.90
59148;DHT22;44930;52.878;6.168;2022-10-16T12:18:46;16.80;99.90
59148;DHT22;44930;52.878;6.168;2022-10-16T12:21:14;16.50;99.90
59148;DHT22;44930;52.878;6.168;2022-10-16T12:23:52;16.40;99.90
59148;DHT22;44930;52.878;6.168;2022-10-16T12:26:30;16.90;99.90
59148;DHT22;44930;52.878;6.168;2022-10-16T12:29:31;16.50;99.90
59148;DHT22;44930;52.878;6.168;2022-10-16T12:31:54;16.50;99.90
59148;DHT22;44930;52.878;6.168;2022-10-16T12:36:48;16.90;99.90
59148;DHT22;44930;52.878;6.168;2022-10-16T12:39:32;16.00;99.90
59148;DHT22;44930;52.878;6.168;2022-10-16T12:42:30;16.20;99.90
59148;DHT22;44930;52.878;6.168;2022-10-16T12:44:48;15.90;99.90
59148;DHT22;44930;52.878;6.168;2022-10-16T12:49:57;16.20;99.90
59148;DHT22;44930;52.878;6.168;2022-10-16T12:52:44;16.50;99.90
59148;DHT22;44930;52.878;6.168;2022-10-16T12:55:17;17.00;99.90
59148;DHT22;44930;52.878;6.168;2022-10-16T13:06:33;17.40;99.90
59148;DHT22;44930;52.878;6.168;2022-10-16T13:09:10;17.00;99.90
59148;DHT22;44930;52.878;6.168;2022-10-16T13:14:35;16.70;99.90
59148;DHT22;44930;52.878;6.168;2022-10-16T13:28:07;17.40;99.90
59148;DHT22;44930;52.878;6.168;2022-10-16T13:30:45;17.50;99.90
59148;DHT22;44930;52.878;6.168;2022-10-16T13:33:19;17.30;99.90
59148;DHT22;44930;52.878;6.168;2022-10-16T13:35:49;17.30;99.90
59148;DHT22;44930;52.878;6.168;2022-10-16T13:38:20;17.30;99.90
59148;DHT22;44930;52.878;6.168;2022-10-16T13:43:34;17.10;99.90
59148;DHT22;44930;52.878;6.168;2022-10-16T13:46:06;17.30;99.90
59148;DHT22;44930;52.878;6.168;2022-10-16T13:48:32;17.20;99.90
59148;DHT22;44930;52.878;6.168;2022-10-16T13:51:04;16.80;99.90
59148;DHT22;44930;52.878;6.168;2022-10-16T13:53:31;17.20;99.90
59148;DHT22;44930;52.878;6.168;2022-10-16T13:55:57;17.10;99.90
59148;DHT22;44930;52.878;6.168;2022-10-16T13:58:23;17.60;99.90
59148;DHT22;44930;52.878;6.168;2022-10-16T14:00:57;16.90;99.90
59148;DHT22;44930;52.878;6.168;2022-10-16T14:03:23;17.50;99.90
59148;DHT22;44930;52.878;6.168;2022-10-16T14:05:52;17.10;99.90
59148;DHT22;44930;52.878;6.168;2022-10-16T14:08:19;17.00;99.90
59148;DHT22;44930;52.878;6.168;2022-10-16T14:10:49;17.70;99.90
59148;DHT22;44930;52.878;6.168;2022-10-16T14:13:19;17.00;99.90
59148;DHT22;44930;52.878;6.168;2022-10-16T14:15:49;17.20;99.90
59148;DHT22;44930;52.878;6.168;2022-10-16T14:18:21;17.10;99.90
59148;DHT22;44930;52.878;6.168;2022-10-16T14:20:48;17.20;99.90
59148;DHT22;44930;52.878;6.168;2022-10-16T14:23:29;17.20;99.90
59148;DHT22;44930;52.878;6.168;2022-10-16T14:28:38;17.30;99.90
59148;DHT22;44930;52.878;6.168;2022-10-16T14:33:45;16.60;99.90
59148;DHT22;44930;52.878;6.168;2022-10-16T14:36:14;16.60;99.90
59148;DHT22;44930;52.878;6.168;2022-10-16T14:38:56;16.90;99.90
59148;DHT22;44930;52.878;6.168;2022-10-16T14:41:23;16.60;99.90
59148;DHT22;44930;52.878;6.168;2022-10-16T14:43:54;16.70;99.90
59148;DHT22;44930;52.878;6.168;2022-10-16T14:46:23;16.40;99.90
59148;DHT22;44930;52.878;6.168;2022-10-16T14:49:00;16.50;99.90
59148;DHT22;44930;52.878;6.168;2022-10-16T14:51:27;16.60;99.90
59148;DHT22;44930;52.878;6.168;2022-10-16T14:53:53;16.80;99.90
59148;DHT22;44930;52.878;6.168;2022-10-16T14:56:24;16.60;99.90
59148;DHT22;44930;52.878;6.168;2022-10-16T14:58:51;16.20;99.90
59148;DHT22;44930;52.878;6.168;2022-10-16T15:01:17;16.20;99.90
59148;DHT22;44930;52.878;6.168;2022-10-16T15:03:43;16.20;99.90
59148;DHT22;44930;52.878;6.168;2022-10-16T15:06:13;16.70;99.90
59148;DHT22;44930;52.878;6.168;2022-10-16T15:08:40;16.70;99.90
59148;DHT22;44930;52.878;6.168;2022-10-16T15:11:10;16.40;99.90
59148;DHT22;44930;52.878;6.168;2022-10-16T15:13:37;16.80;99.90
59148;DHT22;44930;52.878;6.168;2022-10-16T15:16:02;16.40;99.90
59148;DHT22;44930;52.878;6.168;2022-10-16T15:18:28;16.40;99.90
59148;DHT22;44930;52.878;6.168;2022-10-16T15:20:54;16.60;99.90
59148;DHT22;44930;52.878;6.168;2022-10-16T15:23:21;15.90;99.90
59148;DHT22;44930;52.878;6.168;2022-10-16T15:25:49;16.00;99.90
59148;DHT22;44930;52.878;6.168;2022-10-16T15:28:16;16.20;99.90
59148;DHT22;44930;52.878;6.168;2022-10-16T15:30:41;16.20;99.90
59148;DHT22;44930;52.878;6.168;2022-10-16T15:33:16;16.00;99.90
59148;DHT22;44930;52.878;6.168;2022-10-16T15:35:42;15.90;99.90
59148;DHT22;44930;52.878;6.168;2022-10-16T15:38:12;16.00;99.90
59148;DHT22;44930;52.878;6.168;2022-10-16T15:40:39;16.10;99.90
59148;DHT22;44930;52.878;6.168;2022-10-16T15:43:05;15.40;99.90
59148;DHT22;44930;52.878;6.168;2022-10-16T15:45:31;15.80;99.90
59148;DHT22;44930;52.878;6.168;2022-10-16T15:47:57;15.60;99.90
59148;DHT22;44930;52.878;6.168;2022-10-16T15:50:22;16.10;99.90
59148;DHT22;44930;52.878;6.168;2022-10-16T15:52:49;16.00;99.90
59148;DHT22;44930;52.878;6.168;2022-10-16T15:55:15;15.60;99.90
59148;DHT22;44930;52.878;6.168;2022-10-16T15:57:41;15.00;99.90
59148;DHT22;44930;52.878;6.168;2022-10-16T16:00:14;15.30;99.90
59148;DHT22;44930;52.878;6.168;2022-10-16T16:02:41;15.40;99.90
59148;DHT22;44930;52.878;6.168;2022-10-16T16:05:08;15.30;99.90
59148;DHT22;44930;52.878;6.168;2022-10-16T16:07:35;15.20;99.90
59148;DHT22;44930;52.878;6.168;2022-10-16T16:10:02;15.00;99.90
59148;DHT22;44930;52.878;6.168;2022-10-16T16:12:28;15.40;99.90
59148;DHT22;44930;52.878;6.168;2022-10-16T16:14:54;14.80;99.90
59148;DHT22;44930;52.878;6.168;2022-10-16T16:17:19;14.80;99.90
59148;DHT22;44930;52.878;6.168;2022-10-16T16:19:45;14.70;99.90
59148;DHT22;44930;52.878;6.168;2022-10-16T16:22:11;14.60;99.90
59148;DHT22;44930;52.878;6.168;2022-10-16T16:24:36;15.00;99.90
59148;DHT22;44930;52.878;6.168;2022-10-16T16:27:02;14.80;99.90
59148;DHT22;44930;52.878;6.168;2022-10-16T16:29:28;14.60;99.90
59148;DHT22;44930;52.878;6.168;2022-10-16T16:31:53;14.30;99.90
59148;DHT22;44930;52.878;6.168;2022-10-16T16:34:24;14.60;99.90
59148;DHT22;44930;52.878;6.168;2022-10-16T16:36:50;14.60;99.90
59148;DHT22;44930;52.878;6.168;2022-10-16T16:39:16;14.10;99.90
59148;DHT22;44930;52.878;6.168;2022-10-16T16:41:41;14.10;99.90
59148;DHT22;44930;52.878;6.168;2022-10-16T16:44:09;14.10;99.90
59148;DHT22;44930;52.878;6.168;2022-10-16T16:46:36;14.00;99.90
59148;DHT22;44930;52.878;6.168;2022-10-16T16:49:02;13.90;99.90
59148;DHT22;44930;52.878;6.168;2022-10-16T16:51:28;13.80;99.90
59148;DHT22;44930;52.878;6.168;2022-10-16T16:53:54;14.20;99.90
59148;DHT22;44930;52.878;6.168;2022-10-16T16:56:21;14.00;99.90
59148;DHT22;44930;52.878;6.168;2022-10-16T16:58:49;14.10;99.90
59148;DHT22;44930;52.878;6.168;2022-10-16T17:01:15;13.70;99.90
59148;DHT22;44930;52.878;6.168;2022-10-16T17:03:42;13.60;99.90
59148;DHT22;44930;52.878;6.168;2022-10-16T17:06:12;13.90;99.90
59148;DHT22;44930;52.878;6.168;2022-10-16T17:08:39;13.40;99.90
59148;DHT22;44930;52.878;6.168;2022-10-16T17:11:06;13.20;99.90
59148;DHT22;44930;52.878;6.168;2022-10-16T17:13:36;13.40;99.90
59148;DHT22;44930;52.878;6.168;2022-10-16T17:16:04;13.40;99.90
59148;DHT22;44930;52.878;6.168;2022-10-16T17:20:59;13.20;99.90
59148;DHT22;44930;52.878;6.168;2022-10-16T17:23:25;12.90;99.90
59148;DHT22;44930;52.878;6.168;2022-10-16T17:25:51;13.10;99.90
59148;DHT22;44930;52.878;6.168;2022-10-16T17:28:16;12.90;99.90
59148;DHT22;44930;52.878;6.168;2022-10-16T17:30:42;13.30;99.90
59148;DHT22;44930;52.878;6.168;2022-10-16T17:33:10;13.10;99.90